Time;durP1;ratioP1;P1;durP2;ratioP2;P2;SDS_P1;SDS_P2;PMS_P1;PMS_P2;Temp;Humidity;BMP_temperature;BMP_pressure;BME280_temperature;BME280_humidity;BME280_pressure;Samples;Min_cycle;Max_cycle;Signal;HPM_P1;HPM_P2
2021/12/29 00:01:27;;;;;;;8.68;5.40;;;22.70;76.70;;;;;;1927193;73;21126;-72
2021/12/29 00:03:58;;;;;;;7.45;5.15;;;22.70;76.60;;;;;;1921527;73;21101;-72
2021/12/29 00:06:29;;;;;;;10.15;5.58;;;22.70;76.70;;;;;;1930848;73;21225;-72
2021/12/29 00:09:01;;;;;;;15.98;7.55;;;22.70;76.50;;;;;;1918472;73;21556;-72
2021/12/29 00:11:37;;;;;;;14.35;8.88;;;22.70;76.50;;;;;;1919068;73;21159;-71
2021/12/29 00:14:05;;;;;;;13.43;7.53;;;22.70;76.50;;;;;;1925709;73;21138;-71
2021/12/29 00:16:36;;;;;;;14.58;8.80;;;22.70;75.90;;;;;;1897549;75;21650;-71
2021/12/29 00:19:08;;;;;;;13.00;8.83;;;22.70;76.30;;;;;;1845603;76;21200;-71
2021/12/29 00:21:39;;;;;;;15.60;8.98;;;22.80;76.20;;;;;;1916093;73;21134;-72
2021/12/29 00:24:10;;;;;;;14.40;8.15;;;22.80;76.40;;;;;;1911746;73;21693;-72
2021/12/29 00:26:40;;;;;;;12.43;7.95;;;22.80;76.40;;;;;;1923730;73;21142;-72
2021/12/29 00:29:11;;;;;;;10.53;7.08;;;22.80;76.50;;;;;;1928704;73;21257;-72
2021/12/29 00:31:42;;;;;;;11.57;6.62;;;22.90;76.50;;;;;;1922462;73;21156;-72
2021/12/29 00:34:13;;;;;;;12.33;6.28;;;22.90;76.50;;;;;;1891570;75;21140;-71
2021/12/29 00:36:44;;;;;;;8.38;5.50;;;22.90;76.20;;;;;;1904755;73;21154;-73
2021/12/29 00:39:15;;;;;;;11.65;5.55;;;22.90;76.10;;;;;;1876475;74;21172;-72
2021/12/29 00:41:46;;;;;;;10.03;5.85;;;22.90;75.80;;;;;;1875554;75;21087;-75
2021/12/29 00:44:17;;;;;;;11.15;6.28;;;22.90;75.90;;;;;;1813831;77;21161;-72
2021/12/29 00:46:52;;;;;;;11.33;6.37;;;22.90;76.00;;;;;;1898701;75;21150;-72
2021/12/29 00:49:20;;;;;;;10.00;5.42;;;23.00;76.00;;;;;;1897288;75;21124;-72
2021/12/29 00:51:52;;;;;;;11.45;6.20;;;22.90;75.60;;;;;;1901870;75;21578;-72
2021/12/29 00:54:23;;;;;;;10.40;5.12;;;22.90;76.00;;;;;;1908780;75;21228;-71
2021/12/29 00:56:54;;;;;;;9.68;6.05;;;22.90;75.90;;;;;;1887848;75;21203;-73
2021/12/29 00:59:28;;;;;;;12.63;6.50;;;22.90;76.00;;;;;;1889833;75;21814;-71
2021/12/29 01:01:59;;;;;;;9.40;5.60;;;22.90;76.20;;;;;;1881137;75;21164;-71
2021/12/29 01:04:30;;;;;;;8.43;5.35;;;23.00;76.20;;;;;;1874758;75;21148;-72
2021/12/29 01:07:02;;;;;;;8.50;5.62;;;23.00;75.90;;;;;;1881062;75;21297;-72
2021/12/29 01:09:33;;;;;;;65.15;11.08;;;23.00;76.10;;;;;;1893932;75;21142;-72
2021/12/29 01:12:04;;;;;;;10.95;5.28;;;23.00;76.10;;;;;;1863191;76;21682;-71
2021/12/29 01:14:39;;;;;;;84.30;11.22;;;23.00;76.30;;;;;;1886341;75;21151;-72
2021/12/29 01:17:07;;;;;;;14.10;6.58;;;23.00;76.10;;;;;;1853554;77;21085;-73
2021/12/29 01:19:38;;;;;;;11.38;5.33;;;23.10;76.00;;;;;;1890305;75;21115;-72
2021/12/29 01:22:10;;;;;;;7.60;4.70;;;23.10;75.90;;;;;;1878602;75;21168;-73
2021/12/29 01:24:42;;;;;;;7.87;4.80;;;23.10;75.40;;;;;;1880224;75;21659;-72
2021/12/29 01:27:15;;;;;;;11.00;5.50;;;23.20;75.30;;;;;;1881128;75;21584;-73
2021/12/29 01:29:47;;;;;;;8.48;5.30;;;23.20;75.40;;;;;;1880236;75;21185;-74
2021/12/29 01:32:17;;;;;;;10.88;5.53;;;23.20;75.50;;;;;;1878683;75;21056;-72
2021/12/29 01:34:49;;;;;;;8.20;4.83;;;23.20;75.50;;;;;;1880069;76;21578;-72
2021/12/29 01:37:19;;;;;;;8.63;5.83;;;23.20;75.70;;;;;;1874159;75;21112;-72
2021/12/29 01:39:50;;;;;;;10.40;5.83;;;23.30;75.80;;;;;;1883649;75;21284;-72
2021/12/29 01:42:21;;;;;;;8.73;5.25;;;23.30;75.80;;;;;;1869034;76;21539;-70
2021/12/29 01:44:53;;;;;;;22.55;6.78;;;23.30;75.80;;;;;;1926639;73;21208;-71
2021/12/29 01:47:27;;;;;;;24.52;7.45;;;23.30;75.90;;;;;;1934730;73;21205;-73
2021/12/29 01:50:01;;;;;;;9.30;5.90;;;23.40;75.90;;;;;;1925609;73;21500;-72
2021/12/29 01:52:37;;;;;;;9.98;5.90;;;23.50;75.70;;;;;;1926961;73;21216;-72
2021/12/29 01:55:06;;;;;;;11.12;5.80;;;23.50;75.50;;;;;;1921893;73;21083;-72
2021/12/29 01:57:37;;;;;;;10.45;5.70;;;23.60;75.60;;;;;;1919525;73;21209;-73
2021/12/29 02:00:10;;;;;;;9.65;5.47;;;23.60;75.40;;;;;;1914334;73;21827;-71
2021/12/29 02:02:46;;;;;;;11.63;5.95;;;23.60;75.30;;;;;;1920775;73;21044;-72
2021/12/29 02:05:14;;;;;;;11.25;6.08;;;23.60;75.30;;;;;;1926613;73;21130;-73
2021/12/29 02:07:46;;;;;;;8.95;5.42;;;23.70;75.40;;;;;;1928984;73;21107;-73
2021/12/29 02:10:19;;;;;;;15.38;6.12;;;23.70;75.10;;;;;;1928677;73;21675;-72
2021/12/29 02:12:50;;;;;;;13.00;6.08;;;23.70;75.10;;;;;;1910598;74;21255;-72
2021/12/29 02:15:22;;;;;;;10.20;5.80;;;23.70;75.20;;;;;;1895992;74;21149;-73
2021/12/29 02:17:53;;;;;;;10.75;6.20;;;23.80;75.30;;;;;;1923738;73;21156;-72
2021/12/29 02:20:24;;;;;;;13.20;7.85;;;23.90;75.30;;;;;;1925400;73;21765;-72
2021/12/29 02:23:12;;;;;;;13.88;7.80;;;23.90;74.90;;;;;;1934966;73;21129;-71
2021/12/29 02:25:47;;;;;;;11.15;7.15;;;24.00;74.80;;;;;;1930958;73;21129;-72
2021/12/29 02:28:02;;;;;;;50.17;12.53;;;24.10;74.70;;;;;;1911868;73;21597;-71
2021/12/29 02:30:33;;;;;;;16.97;8.55;;;24.10;75.20;;;;;;1924882;73;21646;-72
2021/12/29 02:33:05;;;;;;;14.10;6.60;;;24.20;75.00;;;;;;1929582;73;21103;-70
2021/12/29 02:35:35;;;;;;;7.83;5.80;;;24.20;73.80;;;;;;1917664;73;21153;-69
2021/12/29 02:38:10;;;;;;;7.50;4.87;;;24.30;73.60;;;;;;1927308;73;21188;-69
2021/12/29 02:40:39;;;;;;;7.42;4.37;;;24.30;73.30;;;;;;1919542;73;21178;-70
2021/12/29 02:43:12;;;;;;;7.28;4.53;;;24.40;72.90;;;;;;1893203;75;21122;-72
2021/12/29 02:45:42;;;;;;;7.33;4.67;;;24.40;72.70;;;;;;1933437;73;21184;-70
2021/12/29 02:48:12;;;;;;;7.25;4.70;;;24.40;72.70;;;;;;1923566;74;21275;-72
2021/12/29 02:50:44;;;;;;;7.53;4.83;;;24.50;72.60;;;;;;1927328;73;21169;-70
2021/12/29 02:53:15;;;;;;;7.92;4.45;;;24.50;72.60;;;;;;1942266;73;21555;-71
2021/12/29 02:55:46;;;;;;;7.62;4.25;;;24.60;72.40;;;;;;1899943;75;21563;-72
2021/12/29 02:58:17;;;;;;;8.95;4.20;;;24.60;72.10;;;;;;1921255;73;21111;-71
2021/12/29 03:00:49;;;;;;;7.28;3.67;;;24.60;72.10;;;;;;1920840;73;21154;-71
2021/12/29 03:03:23;;;;;;;8.08;4.50;;;24.70;72.20;;;;;;1885297;74;21517;-71
2021/12/29 03:05:55;;;;;;;9.20;4.10;;;24.80;71.90;;;;;;1923404;73;21113;-72
2021/12/29 03:08:26;;;;;;;10.05;4.62;;;24.90;71.80;;;;;;1923918;73;21716;-73
2021/12/29 03:10:57;;;;;;;7.30;4.37;;;25.00;71.10;;;;;;1893354;74;21094;-70
2021/12/29 03:13:30;;;;;;;5.65;3.92;;;25.00;71.10;;;;;;1919814;73;21147;-72
2021/12/29 03:16:01;;;;;;;6.75;4.53;;;25.00;70.90;;;;;;1923068;73;21154;-71
2021/12/29 03:18:32;;;;;;;6.10;4.45;;;25.00;70.70;;;;;;1919633;73;21068;-71
2021/12/29 03:21:04;;;;;;;9.90;5.55;;;25.10;70.50;;;;;;1915437;73;21079;-72
2021/12/29 03:23:35;;;;;;;9.30;5.42;;;25.10;70.40;;;;;;1921608;73;21051;-72
2021/12/29 03:26:09;;;;;;;9.53;5.53;;;25.20;70.50;;;;;;1924048;73;21154;-72
2021/12/29 03:28:39;;;;;;;8.13;4.55;;;25.30;69.90;;;;;;1922587;73;21158;-72
2021/12/29 03:31:14;;;;;;;7.55;4.03;;;25.40;69.80;;;;;;1929453;73;21317;-73
2021/12/29 03:33:43;;;;;;;10.78;5.15;;;25.50;69.70;;;;;;1925048;73;21130;-72
2021/12/29 03:36:15;;;;;;;8.55;5.75;;;25.50;69.50;;;;;;1850607;76;21687;-72
2021/12/29 03:38:48;;;;;;;9.83;4.50;;;25.70;68.80;;;;;;1881701;75;21663;-72
2021/12/29 03:41:23;;;;;;;6.87;3.90;;;25.80;68.40;;;;;;1911960;73;21188;-72
2021/12/29 03:43:53;;;;;;;5.25;3.17;;;25.80;68.40;;;;;;1918165;73;21272;-71
2021/12/29 03:46:26;;;;;;;5.80;2.95;;;25.90;67.90;;;;;;1885959;75;21084;-72
2021/12/29 03:48:57;;;;;;;6.65;4.03;;;26.00;67.40;;;;;;1918803;73;21119;-72
2021/12/29 03:51:27;;;;;;;4.78;3.20;;;26.10;67.20;;;;;;1880988;75;21602;-71
2021/12/29 03:53:58;;;;;;;7.35;3.47;;;26.20;66.90;;;;;;1905287;74;21673;-72
2021/12/29 03:56:30;;;;;;;7.40;2.90;;;26.30;66.80;;;;;;1916276;73;21115;-72
2021/12/29 03:59:01;;;;;;;5.55;2.70;;;26.30;66.20;;;;;;1914152;74;21611;-72
2021/12/29 04:01:32;;;;;;;5.47;3.17;;;26.40;66.10;;;;;;1918911;73;21098;-72
2021/12/29 04:04:03;;;;;;;6.45;3.25;;;26.50;65.60;;;;;;1921076;73;21107;-72
2021/12/29 04:06:35;;;;;;;4.97;3.25;;;26.60;65.40;;;;;;1915805;73;21177;-72
2021/12/29 04:09:06;;;;;;;3.50;2.55;;;26.70;65.50;;;;;;1920166;73;21128;-72
2021/12/29 04:11:37;;;;;;;5.47;2.85;;;26.80;65.60;;;;;;1922566;73;21793;-72
2021/12/29 04:14:08;;;;;;;4.80;2.42;;;26.90;64.90;;;;;;1920031;73;21174;-73
2021/12/29 04:16:45;;;;;;;4.50;2.22;;;27.00;64.20;;;;;;1922314;73;21136;-74
2021/12/29 04:19:17;;;;;;;4.62;2.45;;;27.10;64.30;;;;;;1898729;75;21147;-74
2021/12/29 04:21:46;;;;;;;6.60;2.25;;;27.20;64.40;;;;;;1920090;74;21726;-73
2021/12/29 04:24:17;;;;;;;5.45;2.40;;;27.40;63.50;;;;;;1923840;73;21095;-73
2021/12/29 04:26:48;;;;;;;3.85;2.15;;;27.50;63.00;;;;;;1911145;73;21123;-73
2021/12/29 04:29:19;;;;;;;4.87;2.10;;;27.60;63.10;;;;;;1885015;75;21099;-72
2021/12/29 04:31:51;;;;;;;4.70;2.60;;;27.80;62.90;;;;;;1918999;73;21174;-73
2021/12/29 04:34:22;;;;;;;5.47;2.33;;;27.90;62.50;;;;;;1919950;73;21215;-73
2021/12/29 04:36:52;;;;;;;7.05;2.65;;;27.90;61.90;;;;;;1919601;74;21127;-73
2021/12/29 04:39:23;;;;;;;8.25;2.42;;;28.00;61.40;;;;;;1936602;73;21135;-73
2021/12/29 04:41:59;;;;;;;6.67;2.80;;;28.00;61.20;;;;;;1925379;73;21589;-73
2021/12/29 04:44:30;;;;;;;4.35;2.47;;;28.10;61.10;;;;;;1937903;74;21228;-73
2021/12/29 04:47:02;;;;;;;5.80;2.40;;;28.20;61.10;;;;;;1946482;73;21134;-73
2021/12/29 04:49:40;;;;;;;4.72;2.10;;;28.20;61.10;;;;;;1917443;73;21232;-73
2021/12/29 04:52:16;;;;;;;4.62;2.45;;;28.30;61.10;;;;;;1888859;74;21251;-72
2021/12/29 04:54:47;;;;;;;3.85;2.65;;;28.40;60.60;;;;;;1925669;73;21566;-73
2021/12/29 04:57:18;;;;;;;3.77;2.08;;;28.40;60.20;;;;;;1929992;73;21672;-73
2021/12/29 04:59:48;;;;;;;6.17;2.52;;;28.50;60.20;;;;;;1926409;73;21233;-73
2021/12/29 05:02:19;;;;;;;3.83;2.55;;;28.50;60.00;;;;;;1927953;73;21122;-73
2021/12/29 05:04:59;;;;;;;6.85;2.30;;;28.60;60.60;;;;;;1928292;73;21190;-73
2021/12/29 05:09:54;;;;;;;4.72;2.50;;;28.70;60.00;;;;;;1919215;73;21197;-73
2021/12/29 05:12:25;;;;;;;2.75;1.98;;;28.70;59.80;;;;;;1882996;76;21122;-73
2021/12/29 05:14:56;;;;;;;5.12;2.40;;;28.80;59.40;;;;;;1923777;73;21118;-72
2021/12/29 05:17:26;;;;;;;5.53;2.15;;;28.80;59.20;;;;;;1905268;74;21144;-73
2021/12/29 05:19:57;;;;;;;5.25;2.60;;;28.90;59.60;;;;;;1926114;73;21115;-72
2021/12/29 05:22:28;;;;;;;5.45;2.30;;;28.90;59.80;;;;;;1930652;73;21184;-73
2021/12/29 05:24:58;;;;;;;4.28;2.22;;;29.10;58.90;;;;;;1931518;73;21111;-73
2021/12/29 05:27:30;;;;;;;4.25;2.10;;;29.10;59.20;;;;;;1929652;73;21157;-72
2021/12/29 05:30:03;;;;;;;4.92;2.35;;;29.10;58.60;;;;;;1921459;73;21653;-73
2021/12/29 05:32:33;;;;;;;8.83;2.80;;;29.10;58.50;;;;;;1927406;73;21607;-73
2021/12/29 05:35:05;;;;;;;5.20;2.22;;;29.20;58.70;;;;;;1948286;73;21551;-73
2021/12/29 05:37:36;;;;;;;5.40;2.45;;;29.20;59.20;;;;;;1876855;75;21087;-73
2021/12/29 05:40:09;;;;;;;4.40;1.57;;;29.30;58.70;;;;;;1945411;73;22019;-73
2021/12/29 05:42:40;;;;;;;3.95;1.90;;;29.40;58.20;;;;;;1938044;73;21110;-73
2021/12/29 05:45:13;;;;;;;3.22;1.70;;;29.50;57.80;;;;;;1933904;73;21115;-72
2021/12/29 05:47:44;;;;;;;5.35;2.42;;;29.50;57.70;;;;;;1941250;73;21561;-72
2021/12/29 05:50:17;;;;;;;3.95;2.02;;;29.50;57.70;;;;;;1926447;74;21155;-72
2021/12/29 05:52:49;;;;;;;6.45;1.87;;;29.60;57.60;;;;;;1907323;73;21619;-73
2021/12/29 05:55:20;;;;;;;5.33;2.17;;;29.60;57.70;;;;;;1908016;74;21088;-72
2021/12/29 05:57:51;;;;;;;6.72;2.22;;;29.60;58.60;;;;;;1906039;72;21260;-72
2021/12/29 06:00:24;;;;;;;18.10;3.50;;;29.70;58.20;;;;;;1908208;72;21110;-72
2021/12/29 06:02:55;;;;;;;12.95;2.80;;;29.70;57.60;;;;;;1889510;74;21633;-73
2021/12/29 06:05:27;;;;;;;6.92;2.40;;;29.70;58.30;;;;;;1938839;72;21086;-72
2021/12/29 06:07:58;;;;;;;4.45;2.37;;;29.60;57.90;;;;;;1930563;72;21123;-73
2021/12/29 06:10:30;;;;;;;3.30;1.90;;;29.60;58.10;;;;;;1926767;72;21078;-73
2021/12/29 06:13:00;;;;;;;4.90;1.98;;;29.60;58.00;;;;;;1937809;74;21115;-73
2021/12/29 06:15:32;;;;;;;3.05;1.77;;;29.70;57.80;;;;;;1927104;74;21138;-72
2021/12/29 06:18:03;;;;;;;2.95;1.77;;;29.80;58.50;;;;;;1922310;74;21248;-72
2021/12/29 06:20:38;;;;;;;5.65;2.12;;;29.80;57.50;;;;;;1924272;74;21127;-72
2021/12/29 06:23:12;;;;;;;6.08;2.02;;;29.80;57.50;;;;;;1886954;74;21240;-72
2021/12/29 06:25:41;;;;;;;7.00;2.40;;;29.90;57.20;;;;;;1935120;73;21512;-73
2021/12/29 06:28:12;;;;;;;3.35;1.70;;;29.90;57.40;;;;;;1935977;73;21139;-72
2021/12/29 06:30:44;;;;;;;3.65;1.60;;;30.00;57.10;;;;;;1929020;73;21613;-72
2021/12/29 06:33:15;;;;;;;3.15;1.60;;;30.10;56.90;;;;;;1921862;73;21195;-73
2021/12/29 06:35:46;;;;;;;2.62;1.62;;;30.10;56.70;;;;;;1931890;73;21068;-71
2021/12/29 06:38:16;;;;;;;3.62;1.62;;;30.10;56.50;;;;;;1939815;73;21123;-72
2021/12/29 06:40:47;;;;;;;5.85;1.70;;;30.10;56.70;;;;;;1934522;73;21130;-71
2021/12/29 06:43:18;;;;;;;4.87;1.90;;;30.10;56.70;;;;;;1877546;75;21171;-71
2021/12/29 06:45:49;;;;;;;4.75;1.95;;;30.10;57.20;;;;;;1922518;73;21134;-72
2021/12/29 06:48:20;;;;;;;4.25;1.80;;;30.10;57.00;;;;;;1917522;73;21185;-71
2021/12/29 06:50:51;;;;;;;7.45;1.82;;;30.10;57.00;;;;;;1928398;73;21175;-69
2021/12/29 06:53:40;;;;;;;4.40;1.98;;;30.10;56.80;;;;;;1942639;73;21124;-72
2021/12/29 06:56:12;;;;;;;5.42;2.00;;;30.10;56.90;;;;;;1863335;76;21228;-73
2021/12/29 06:58:42;;;;;;;5.28;2.00;;;30.20;56.90;;;;;;1878932;76;21491;-74
2021/12/29 07:01:16;;;;;;;3.00;1.92;;;30.20;56.50;;;;;;1873583;76;21550;-72
2021/12/29 07:03:46;;;;;;;2.80;1.70;;;30.20;56.90;;;;;;1873452;76;21180;-72
2021/12/29 07:06:17;;;;;;;2.35;1.50;;;30.20;56.30;;;;;;1872192;76;21231;-73
2021/12/29 07:08:47;;;;;;;5.28;2.35;;;30.10;56.70;;;;;;1863578;76;21552;-72
2021/12/29 07:11:18;;;;;;;3.58;1.95;;;30.10;56.90;;;;;;1880041;76;21202;-73
2021/12/29 07:13:51;;;;;;;4.70;1.87;;;30.10;56.50;;;;;;1873793;75;21141;-74
2021/12/29 07:16:44;;;;;;;3.75;2.02;;;30.10;56.00;;;;;;1864051;76;21615;-74
2021/12/29 07:19:14;;;;;;;5.83;1.70;;;30.20;56.40;;;;;;1884272;75;21067;-72
2021/12/29 07:21:47;;;;;;;3.75;1.60;;;30.20;55.80;;;;;;1874688;75;21157;-73
2021/12/29 07:24:18;;;;;;;3.02;1.40;;;30.20;56.00;;;;;;1875089;75;21141;-72
2021/12/29 07:26:48;;;;;;;5.85;1.52;;;30.20;55.80;;;;;;1864997;75;21609;-72
2021/12/29 07:29:19;;;;;;;4.17;1.82;;;30.20;55.80;;;;;;1871888;76;21502;-73
2021/12/29 07:31:51;;;;;;;4.95;1.45;;;30.20;55.60;;;;;;1856562;76;21252;-73
2021/12/29 07:34:22;;;;;;;3.80;1.30;;;30.20;55.90;;;;;;1880650;75;21123;-73
2021/12/29 07:36:54;;;;;;;3.45;1.50;;;30.20;55.10;;;;;;1876314;76;21609;-74
2021/12/29 07:39:25;;;;;;;2.60;1.40;;;30.20;55.60;;;;;;1877747;76;21122;-73
2021/12/29 07:41:56;;;;;;;3.70;1.80;;;30.20;55.80;;;;;;1876111;75;21730;-72
2021/12/29 07:44:28;;;;;;;3.55;1.87;;;30.20;56.40;;;;;;1887486;75;21212;-72
2021/12/29 07:47:47;;;;;;;3.17;1.82;;;30.20;56.20;;;;;;1880524;75;21602;-73
2021/12/29 07:49:51;;;;;;;3.92;1.45;;;30.20;56.00;;;;;;1799100;78;21164;-73
2021/12/29 07:52:22;;;;;;;2.60;1.30;;;30.20;56.10;;;;;;1752643;79;21083;-72
2021/12/29 07:54:53;;;;;;;5.80;1.40;;;30.10;56.20;;;;;;1751436;79;21810;-73
2021/12/29 07:57:23;;;;;;;3.60;1.37;;;30.10;55.80;;;;;;1792290;78;21166;-73
2021/12/29 07:59:54;;;;;;;5.30;1.90;;;30.20;56.00;;;;;;1804113;77;21134;-72
2021/12/29 08:02:27;;;;;;;3.85;1.80;;;30.10;56.30;;;;;;1818394;78;21703;-72
2021/12/29 08:04:59;;;;;;;4.08;1.40;;;30.10;56.40;;;;;;1792161;78;21250;-72
2021/12/29 08:07:31;;;;;;;6.55;1.42;;;30.10;56.20;;;;;;1800582;78;21182;-72
2021/12/29 08:10:03;;;;;;;3.05;1.30;;;30.10;55.80;;;;;;1813830;78;21078;-72
2021/12/29 08:12:34;;;;;;;2.87;1.47;;;30.00;56.20;;;;;;1794022;78;21662;-72
2021/12/29 08:15:05;;;;;;;3.12;1.30;;;30.00;56.30;;;;;;1797270;78;21631;-71
2021/12/29 08:17:37;;;;;;;6.17;1.80;;;30.00;56.80;;;;;;1783659;78;21233;-71
2021/12/29 08:20:10;;;;;;;4.12;1.50;;;30.00;56.50;;;;;;1803811;78;21199;-72
2021/12/29 08:22:40;;;;;;;2.55;1.40;;;30.00;56.60;;;;;;1812082;78;21588;-72
2021/12/29 08:25:12;;;;;;;2.33;1.30;;;30.00;56.00;;;;;;1813182;78;21137;-73
2021/12/29 08:27:43;;;;;;;5.40;1.50;;;29.90;56.10;;;;;;1811785;78;21124;-74
2021/12/29 08:30:14;;;;;;;3.92;1.60;;;29.90;56.20;;;;;;1787810;78;21210;-74
2021/12/29 08:32:44;;;;;;;2.15;0.98;;;29.90;56.00;;;;;;1807010;77;21190;-73
2021/12/29 08:35:16;;;;;;;3.15;1.85;;;29.90;56.20;;;;;;1807992;78;21628;-71
2021/12/29 08:37:50;;;;;;;4.00;1.35;;;29.90;56.00;;;;;;1801292;78;21108;-71
2021/12/29 08:40:21;;;;;;;4.10;1.62;;;29.90;56.10;;;;;;1769254;79;21169;-71
2021/12/29 08:42:54;;;;;;;2.87;1.30;;;29.90;56.30;;;;;;1800287;78;21412;-71
2021/12/29 08:45:26;;;;;;;4.45;1.55;;;29.90;56.40;;;;;;1802681;78;21155;-71
2021/12/29 08:47:58;;;;;;;5.65;1.60;;;29.90;56.50;;;;;;1801584;77;21202;-72
2021/12/29 08:50:31;;;;;;;2.95;1.70;;;29.90;56.40;;;;;;1806684;78;21090;-71
2021/12/29 08:53:04;;;;;;;6.10;1.60;;;29.90;56.40;;;;;;1796279;78;21151;-72
2021/12/29 08:55:37;;;;;;;4.00;1.85;;;29.90;56.30;;;;;;1811652;78;21572;-72
2021/12/29 08:58:08;;;;;;;4.50;1.65;;;29.80;56.40;;;;;;1787512;78;21972;-72
2021/12/29 09:00:39;;;;;;;3.90;1.72;;;29.80;56.50;;;;;;1801109;78;21641;-72
2021/12/29 09:03:10;;;;;;;4.22;1.50;;;29.70;56.60;;;;;;1809187;78;21066;-73
2021/12/29 09:05:41;;;;;;;3.75;1.20;;;29.70;56.90;;;;;;1811719;78;21203;-70
2021/12/29 09:08:12;;;;;;;2.58;1.30;;;29.60;57.00;;;;;;1801709;78;21163;-71
2021/12/29 09:10:44;;;;;;;3.30;1.57;;;29.50;57.00;;;;;;1776641;79;21167;-71
2021/12/29 09:13:16;;;;;;;3.58;1.57;;;29.50;57.00;;;;;;1812028;78;21187;-72
2021/12/29 09:15:47;;;;;;;2.75;1.60;;;29.50;57.40;;;;;;1807090;78;21084;-72
2021/12/29 09:18:18;;;;;;;3.77;1.50;;;29.40;57.30;;;;;;1805983;78;21138;-73
2021/12/29 09:20:49;;;;;;;4.10;1.60;;;29.30;57.60;;;;;;1813108;78;21554;-72
2021/12/29 09:23:20;;;;;;;4.12;2.08;;;29.30;57.60;;;;;;1814976;78;21654;-72
2021/12/29 09:25:52;;;;;;;3.98;1.70;;;29.40;57.90;;;;;;1798709;78;21126;-71
2021/12/29 09:28:23;;;;;;;3.62;1.40;;;29.40;57.50;;;;;;1808313;78;21249;-73
2021/12/29 09:30:54;;;;;;;2.25;1.17;;;29.30;57.40;;;;;;1803836;78;21616;-73
2021/12/29 09:33:25;;;;;;;2.45;1.60;;;29.40;57.60;;;;;;1808199;78;21174;-73
2021/12/29 09:36:02;;;;;;;4.33;1.52;;;29.40;57.50;;;;;;1794947;79;21138;-75
2021/12/29 09:38:31;;;;;;;3.85;1.82;;;29.30;57.60;;;;;;1797350;78;21264;-71
2021/12/29 09:41:03;;;;;;;3.98;1.98;;;29.30;57.70;;;;;;1788122;78;21164;-72
2021/12/29 09:43:34;;;;;;;3.25;1.77;;;29.30;57.70;;;;;;1792263;78;21600;-73
2021/12/29 09:46:06;;;;;;;4.72;2.08;;;29.20;57.90;;;;;;1792400;79;21227;-73
2021/12/29 09:48:37;;;;;;;4.55;2.40;;;29.20;58.10;;;;;;1765086;80;21150;-73
2021/12/29 09:51:15;;;;;;;3.50;1.60;;;29.20;58.10;;;;;;1765943;80;21655;-74
2021/12/29 09:53:44;;;;;;;6.25;2.58;;;29.20;58.40;;;;;;1762135;80;21071;-90
2021/12/29 09:56:15;;;;;;;7.15;3.25;;;29.10;58.50;;;;;;1802560;78;21146;-89
2021/12/29 09:58:46;;;;;;;6.75;2.92;;;29.00;58.50;;;;;;1808185;78;21171;-88
2021/12/29 10:01:17;;;;;;;6.12;2.72;;;29.00;58.80;;;;;;1803919;78;21135;-88
2021/12/29 10:03:50;;;;;;;6.85;3.12;;;29.00;58.90;;;;;;1801274;79;21155;-90
2021/12/29 10:06:21;;;;;;;5.75;3.50;;;29.00;59.00;;;;;;1792174;79;21134;-87
2021/12/29 10:08:53;;;;;;;6.70;3.45;;;28.90;59.10;;;;;;1798430;78;21120;-89
2021/12/29 10:11:26;;;;;;;8.30;3.62;;;28.90;59.30;;;;;;1806565;78;21216;-80
2021/12/29 10:13:58;;;;;;;9.25;3.40;;;28.90;59.20;;;;;;1801738;78;21076;-79
2021/12/29 10:16:30;;;;;;;7.08;3.60;;;28.80;59.30;;;;;;1783240;79;21122;-79
2021/12/29 10:19:03;;;;;;;5.95;3.42;;;28.80;59.40;;;;;;1821484;78;21114;-77
2021/12/29 10:21:36;;;;;;;7.87;3.40;;;28.80;59.50;;;;;;1803597;78;21942;-78
2021/12/29 10:24:07;;;;;;;6.95;3.55;;;28.70;59.60;;;;;;1805646;78;21177;-78
2021/12/29 10:26:41;;;;;;;6.53;3.65;;;28.70;59.70;;;;;;1797893;78;21228;-78
2021/12/29 10:29:14;;;;;;;9.18;4.08;;;28.70;59.90;;;;;;1762115;81;21171;-78
2021/12/29 10:31:47;;;;;;;9.90;4.12;;;28.60;59.90;;;;;;1798090;78;21100;-77
2021/12/29 10:34:21;;;;;;;10.95;4.92;;;28.60;60.10;;;;;;1793506;79;21132;-78
2021/12/29 10:36:55;;;;;;;9.30;4.42;;;28.60;60.40;;;;;;1781585;79;21095;-79
2021/12/29 10:39:28;;;;;;;10.40;4.25;;;28.60;61.60;;;;;;1753533;81;21601;-80
2021/12/29 10:42:02;;;;;;;9.55;6.17;;;28.50;60.70;;;;;;1806797;78;21712;-79
2021/12/29 10:44:34;;;;;;;12.98;6.15;;;28.40;60.80;;;;;;1793287;79;21110;-78
2021/12/29 10:47:08;;;;;;;11.63;5.35;;;28.40;61.10;;;;;;1791599;79;21606;-78
2021/12/29 10:49:40;;;;;;;11.90;5.67;;;28.40;61.20;;;;;;1799313;79;21164;-78
2021/12/29 10:52:11;;;;;;;16.25;5.20;;;28.30;61.30;;;;;;1798111;79;21275;-78
2021/12/29 10:54:42;;;;;;;10.20;5.70;;;28.30;61.40;;;;;;1798013;80;21175;-78
2021/12/29 10:57:13;;;;;;;20.90;7.47;;;28.30;61.60;;;;;;1796946;79;21668;-79
2021/12/29 10:59:44;;;;;;;11.65;5.95;;;28.20;61.70;;;;;;1787234;79;21187;-79
2021/12/29 11:02:17;;;;;;;13.78;5.20;;;28.20;61.90;;;;;;1788341;78;21747;-78
2021/12/29 11:04:51;;;;;;;10.93;5.67;;;28.20;61.90;;;;;;1744024;81;21209;-79
2021/12/29 11:07:24;;;;;;;12.50;5.15;;;28.10;62.00;;;;;;1790177;79;21132;-83
2021/12/29 11:09:55;;;;;;;8.60;5.28;;;28.10;62.10;;;;;;1793648;78;21741;-86
2021/12/29 11:12:26;;;;;;;10.68;4.45;;;28.10;62.20;;;;;;1789147;79;21199;-79
2021/12/29 11:14:57;;;;;;;9.70;5.40;;;28.10;62.30;;;;;;1747364;81;21243;-78
2021/12/29 11:17:28;;;;;;;12.63;5.15;;;28.00;62.40;;;;;;1746880;81;21242;-81
2021/12/29 11:20:00;;;;;;;9.98;4.83;;;28.00;62.60;;;;;;1782960;80;21832;-81
2021/12/29 11:22:32;;;;;;;12.28;5.78;;;28.00;62.70;;;;;;1792858;78;21707;-78
2021/12/29 11:25:04;;;;;;;12.75;5.75;;;28.00;62.90;;;;;;1818641;78;21557;-83
2021/12/29 11:27:36;;;;;;;14.25;5.85;;;28.00;62.90;;;;;;1787387;80;21247;-78
2021/12/29 11:30:10;;;;;;;15.00;6.75;;;28.00;63.20;;;;;;1793714;80;21110;-80
2021/12/29 11:32:43;;;;;;;22.75;8.23;;;27.90;63.20;;;;;;1794874;80;21187;-80
2021/12/29 11:35:17;;;;;;;15.05;8.03;;;27.90;63.30;;;;;;1791943;79;21216;-79
2021/12/29 11:37:50;;;;;;;13.72;7.97;;;27.90;63.20;;;;;;1748445;81;21132;-81
2021/12/29 11:40:24;;;;;;;13.22;7.78;;;27.90;63.30;;;;;;1772725;81;21611;-81
2021/12/29 11:42:56;;;;;;;16.90;9.20;;;27.90;63.30;;;;;;1790935;80;21240;-83
2021/12/29 11:45:27;;;;;;;18.35;10.35;;;27.90;63.40;;;;;;1800687;78;21620;-81
2021/12/29 11:47:58;;;;;;;19.85;10.45;;;27.80;63.40;;;;;;1790032;78;21112;-79
2021/12/29 11:50:31;;;;;;;20.32;10.70;;;27.80;64.60;;;;;;1758833;80;21220;-81
2021/12/29 11:53:05;;;;;;;17.27;10.78;;;27.80;63.70;;;;;;1764835;80;21183;-79
2021/12/29 11:55:39;;;;;;;17.00;10.78;;;27.70;63.80;;;;;;1757981;79;21132;-79
2021/12/29 11:58:13;;;;;;;20.90;11.73;;;27.70;63.80;;;;;;1754166;81;21097;-84
2021/12/29 12:00:46;;;;;;;20.82;12.10;;;27.70;64.10;;;;;;1769844;79;21256;-79
2021/12/29 12:03:18;;;;;;;25.17;14.70;;;27.70;64.20;;;;;;1762034;81;21185;-79
2021/12/29 12:05:50;;;;;;;24.80;15.28;;;27.70;64.20;;;;;;1749783;80;21101;-81
2021/12/29 12:08:23;;;;;;;22.20;14.35;;;27.60;64.30;;;;;;1752435;80;21698;-80
2021/12/29 12:10:54;;;;;;;22.32;13.20;;;27.60;64.60;;;;;;1767321;79;21662;-80
2021/12/29 12:13:27;;;;;;;20.27;12.90;;;27.60;64.60;;;;;;1741502;81;21221;-80
2021/12/29 12:16:00;;;;;;;20.08;11.65;;;27.60;65.00;;;;;;1773735;79;21186;-81
2021/12/29 12:18:36;;;;;;;22.77;10.13;;;27.50;64.90;;;;;;1768683;79;21101;-80
2021/12/29 12:21:07;;;;;;;17.90;11.53;;;27.50;64.90;;;;;;1771642;79;21189;-80
2021/12/29 12:23:40;;;;;;;18.35;10.00;;;27.50;64.90;;;;;;1775776;79;21275;-82
2021/12/29 12:26:11;;;;;;;17.95;9.38;;;27.50;65.20;;;;;;1771234;79;21224;-79
2021/12/29 12:28:44;;;;;;;18.05;9.63;;;27.40;65.10;;;;;;1771699;79;21085;-81
2021/12/29 12:31:19;;;;;;;15.90;8.63;;;27.40;65.30;;;;;;1777280;79;21110;-79
2021/12/29 12:33:51;;;;;;;14.78;8.30;;;27.40;65.50;;;;;;1772036;79;21761;-81
2021/12/29 12:36:24;;;;;;;15.75;8.20;;;27.40;65.60;;;;;;1733514;83;21110;-80
2021/12/29 12:39:00;;;;;;;15.35;9.00;;;27.40;65.70;;;;;;1770656;79;21258;-80
2021/12/29 12:41:33;;;;;;;16.42;9.60;;;27.40;65.80;;;;;;1773914;79;21158;-80
2021/12/29 12:44:04;;;;;;;18.25;9.83;;;27.30;65.80;;;;;;1778128;79;21094;-81
2021/12/29 12:46:37;;;;;;;14.80;9.68;;;27.30;65.90;;;;;;1767932;79;21287;-79
2021/12/29 12:49:11;;;;;;;19.55;9.50;;;27.30;65.90;;;;;;1771558;79;21097;-79
2021/12/29 12:51:42;;;;;;;18.07;8.60;;;27.20;66.00;;;;;;1771833;78;21728;-79
2021/12/29 12:54:16;;;;;;;15.13;8.20;;;27.20;66.20;;;;;;1815857;77;21677;-78
2021/12/29 12:56:49;;;;;;;14.98;7.45;;;27.20;66.20;;;;;;1809969;78;21603;-79
2021/12/29 12:59:19;;;;;;;13.25;6.87;;;27.20;66.30;;;;;;1808233;78;21196;-78
2021/12/29 13:01:52;;;;;;;12.07;5.90;;;27.20;66.30;;;;;;1810445;78;21126;-79
2021/12/29 13:04:24;;;;;;;10.38;5.53;;;27.20;66.40;;;;;;1810915;78;21165;-79
2021/12/29 13:06:59;;;;;;;11.97;5.28;;;27.10;66.20;;;;;;1815761;77;21194;-79
2021/12/29 13:09:28;;;;;;;14.53;4.58;;;27.10;66.30;;;;;;1808359;78;21063;-80